シドニー の空港の天気 - METARとTAF

シドニー国際空港 ( YSSY / SYD ) - オーストラリア ニューサウスウェールズ州、Mascot
飛行場実況気象(Metar)
観測時間04/27 16:30 AEST (04/27 06:30 UTC)
風向・風速南南西 10m/s
視程10km以上
天気現象
少しの雲 雲底高度 1220m
全天の8割程度の雲 雲底高度 3510m
気温17℃
湿度63%
気圧1015hPa
METARYSSY 270630Z 21019KT 9999 FEW040 BKN115 17/10 Q1015 FM0630 MOD TURB BLW 5000FT
過去の天気等 Google飛行場航空写真 Wunderground天気予報

過去48時間のMETAR

飛行場予報(TAF)
発表時間: 4/27 15:06 AEST (4/27 05:06 UTC)
予報対象時間: 27日16時 AEST ~ 28日22時 AEST
風向・風速南南西 9m/s 瞬間風速 14m/s
視程10km以上
少しの雲 雲底高度 1,370m
27日20時 AEST から
風向・風速南西 8m/s
視程10km以上
全天の4割程度の雲 雲底高度 1,220m
28日10時 AEST から
風向・風速南 6m/s
視程10km以上
なし
28日19時 AEST から
風向・風速西北西 4m/s
視程10km以上
なし
TAF YSSY 270506Z 2706/2812 21018G28KT 9999 FEW045
FM271000 22015KT 9999 SCT040
FM280000 18012KT CAVOK
FM280900 29008KT CAVOK